createdAt,value
2022-08-27T00:02:13.364Z,11.18
2022-08-27T00:04:49.983Z,10.82
2022-08-27T00:07:27.510Z,9.75
2022-08-27T00:09:55.998Z,13.00
2022-08-27T00:12:24.651Z,12.05
2022-08-27T00:14:53.274Z,9.85
2022-08-27T00:17:21.715Z,11.52
2022-08-27T00:19:51.981Z,10.52
2022-08-27T00:22:23.255Z,12.75
2022-08-27T00:24:51.918Z,12.73
2022-08-27T00:27:20.710Z,11.88
2022-08-27T00:29:49.516Z,12.57
2022-08-27T00:32:18.624Z,12.00
2022-08-27T00:34:48.373Z,15.55
2022-08-27T00:37:18.365Z,11.50
2022-08-27T00:39:47.246Z,10.73
2022-08-27T00:42:16.161Z,10.38
2022-08-27T00:44:45.160Z,10.55
2022-08-27T00:47:16.031Z,11.95
2022-08-27T00:49:47.031Z,11.13
2022-08-27T00:52:19.088Z,10.70
2022-08-27T00:54:49.158Z,9.95
2022-08-27T00:57:17.941Z,9.65
2022-08-27T00:59:47.005Z,10.00
2022-08-27T01:02:22.150Z,12.25
2022-08-27T01:04:53.407Z,10.75
2022-08-27T01:07:23.039Z,9.23
2022-08-27T01:09:54.264Z,12.20
2022-08-27T01:12:23.236Z,10.43
2022-08-27T01:14:53.358Z,9.70
2022-08-27T01:17:22.238Z,10.10
2022-08-27T01:19:52.383Z,9.50
2022-08-27T01:22:28.082Z,11.10
2022-08-27T01:25:00.800Z,11.82
2022-08-27T01:27:31.569Z,12.75
2022-08-27T01:30:00.620Z,11.50
2022-08-27T01:32:30.621Z,11.85
2022-08-27T01:34:59.365Z,13.13
2022-08-27T01:37:28.517Z,11.88
2022-08-27T01:40:03.556Z,11.70
2022-08-27T01:42:33.972Z,13.02
2022-08-27T01:45:07.432Z,11.07
2022-08-27T01:47:37.101Z,10.68
2022-08-27T01:50:07.492Z,10.10
2022-08-27T01:52:36.209Z,10.98
2022-08-27T01:55:07.033Z,11.00
2022-08-27T01:57:36.494Z,9.68
2022-08-27T02:00:06.851Z,11.60
2022-08-27T02:02:36.224Z,11.45
2022-08-27T02:05:04.804Z,10.07
2022-08-27T02:07:33.593Z,10.70
2022-08-27T02:10:05.757Z,10.38
2022-08-27T02:12:35.703Z,10.80
2022-08-27T02:15:04.891Z,10.27
2022-08-27T02:17:33.768Z,10.10
2022-08-27T02:20:02.355Z,9.57
2022-08-27T02:22:31.092Z,9.90
2022-08-27T02:24:59.625Z,12.05
2022-08-27T02:27:28.326Z,9.07
2022-08-27T02:29:59.106Z,11.18
2022-08-27T02:32:32.072Z,9.77
2022-08-27T02:35:01.505Z,10.10
2022-08-27T02:37:30.258Z,10.90
2022-08-27T02:39:59.759Z,10.63
2022-08-27T02:42:29.745Z,11.80
2022-08-27T02:44:59.809Z,10.02
2022-08-27T02:47:28.538Z,9.05
2022-08-27T02:49:58.126Z,9.55
2022-08-27T02:52:30.159Z,11.43
2022-08-27T02:55:01.241Z,9.88
2022-08-27T02:57:36.694Z,10.48
2022-08-27T03:00:13.372Z,10.02
2022-08-27T03:02:42.680Z,10.40
2022-08-27T03:05:15.249Z,10.80
2022-08-27T03:07:44.695Z,10.82
2022-08-27T03:10:14.741Z,12.23
2022-08-27T03:12:44.457Z,12.15
2022-08-27T03:15:16.820Z,9.57
2022-08-27T03:18:03.218Z,8.93
2022-08-27T03:20:31.855Z,9.88
2022-08-27T03:23:01.684Z,10.63
2022-08-27T03:25:33.063Z,10.75
2022-08-27T03:28:04.271Z,9.73
2022-08-27T03:30:39.712Z,8.88
2022-08-27T03:33:10.684Z,8.75
2022-08-27T03:35:39.584Z,9.20
2022-08-27T03:38:10.748Z,10.00
2022-08-27T03:40:41.364Z,9.18
2022-08-27T03:43:13.955Z,11.15
2022-08-27T03:45:52.779Z,10.57
2022-08-27T03:48:34.853Z,12.85
2022-08-27T03:51:09.798Z,13.40
2022-08-27T03:53:54.634Z,10.93
2022-08-27T03:56:25.933Z,10.90
2022-08-27T03:58:54.698Z,8.93
2022-08-27T04:01:26.588Z,12.27
2022-08-27T04:03:59.192Z,10.45
2022-08-27T04:06:28.352Z,8.95
2022-08-27T04:08:58.477Z,10.10
2022-08-27T04:11:29.645Z,10.75
2022-08-27T04:13:58.354Z,9.68
2022-08-27T04:16:33.491Z,10.23
2022-08-27T04:19:02.399Z,10.82
2022-08-27T04:21:35.923Z,12.48
2022-08-27T04:24:07.644Z,11.45
2022-08-27T04:26:36.316Z,10.85
2022-08-27T04:29:08.141Z,10.90
2022-08-27T04:31:38.321Z,13.43
2022-08-27T04:34:07.986Z,9.90
2022-08-27T04:36:37.986Z,11.35
2022-08-27T04:39:08.840Z,12.13
2022-08-27T04:41:39.832Z,10.20
2022-08-27T04:44:22.016Z,10.93
2022-08-27T04:46:58.669Z,10.45
2022-08-27T04:49:31.983Z,10.73
2022-08-27T04:52:02.946Z,12.40
2022-08-27T04:54:34.931Z,10.52
2022-08-27T04:57:05.587Z,10.02
2022-08-27T04:59:42.093Z,10.82
2022-08-27T05:02:12.398Z,11.07
2022-08-27T05:04:46.467Z,11.93
2022-08-27T05:07:18.359Z,11.63
2022-08-27T05:09:51.115Z,13.18
2022-08-27T05:12:19.732Z,12.97
2022-08-27T05:14:48.341Z,10.10
2022-08-27T05:17:20.281Z,12.75
2022-08-27T05:19:52.106Z,12.93
2022-08-27T05:22:23.049Z,12.15
2022-08-27T05:25:02.475Z,11.77
2022-08-27T05:27:40.462Z,11.23
2022-08-27T05:30:13.283Z,14.25
2022-08-27T05:32:48.029Z,14.02
2022-08-27T05:35:19.673Z,14.63
2022-08-27T05:37:56.513Z,13.77
2022-08-27T05:40:30.548Z,14.68
2022-08-27T05:43:19.707Z,12.82
2022-08-27T05:48:49.740Z,12.98
2022-08-27T05:51:25.718Z,12.35
2022-08-27T05:56:53.290Z,12.68
2022-08-27T05:59:44.997Z,13.70
2022-08-27T06:02:41.087Z,16.08
2022-08-27T06:05:27.792Z,15.25
2022-08-27T06:07:59.579Z,17.80
2022-08-27T06:10:38.536Z,16.63
2022-08-27T06:13:10.113Z,14.15
2022-08-27T06:15:39.406Z,17.10
2022-08-27T06:18:16.862Z,16.67
2022-08-27T06:20:48.311Z,16.00
2022-08-27T06:23:28.118Z,16.80
2022-08-27T06:25:57.440Z,16.27
2022-08-27T06:28:29.649Z,17.75
2022-08-27T06:31:07.473Z,15.88
2022-08-27T06:33:36.886Z,17.63
2022-08-27T06:36:10.903Z,19.27
2022-08-27T06:38:43.491Z,16.40
2022-08-27T06:41:23.492Z,17.42
2022-08-27T06:43:52.708Z,16.67
2022-08-27T06:46:22.902Z,16.45
2022-08-27T06:48:53.705Z,17.10
2022-08-27T06:51:27.461Z,17.27
2022-08-27T06:53:58.634Z,16.83
2022-08-27T06:56:29.971Z,16.60
2022-08-27T06:59:00.719Z,17.45
2022-08-27T07:01:30.689Z,20.02
2022-08-27T07:04:01.257Z,16.63
2022-08-27T07:06:34.172Z,22.23
2022-08-27T07:09:02.951Z,18.58
2022-08-27T07:11:32.765Z,18.38
2022-08-27T07:14:01.347Z,20.02
2022-08-27T07:16:30.826Z,17.67
2022-08-27T07:19:04.068Z,16.75
2022-08-27T07:21:35.295Z,20.20
2022-08-27T07:24:09.846Z,18.10
2022-08-27T07:26:43.193Z,18.95
2022-08-27T07:29:17.000Z,17.45
2022-08-27T07:31:53.842Z,20.17
2022-08-27T07:34:22.412Z,20.02
2022-08-27T07:36:56.629Z,19.83
2022-08-27T07:39:30.027Z,17.90
2022-08-27T07:42:16.547Z,16.20
2022-08-27T07:44:45.265Z,18.90
2022-08-27T07:47:13.891Z,19.80
2022-08-27T07:49:44.459Z,19.35
2022-08-27T07:52:16.302Z,17.75
2022-08-27T07:54:45.159Z,19.27
2022-08-27T07:57:14.095Z,23.23
2022-08-27T07:59:42.839Z,18.30
2022-08-27T08:02:12.964Z,21.73
2022-08-27T08:04:43.928Z,17.67
2022-08-27T08:07:15.375Z,21.02
2022-08-27T08:09:44.054Z,20.63
2022-08-27T08:12:16.727Z,21.05
2022-08-27T08:14:45.871Z,19.33
2022-08-27T08:17:16.490Z,20.88
2022-08-27T08:19:53.563Z,18.70
2022-08-27T08:22:49.012Z,17.27
2022-08-27T08:27:50.661Z,14.80
2022-08-27T08:30:25.862Z,17.90
2022-08-27T08:32:55.175Z,18.30
2022-08-27T08:35:24.454Z,17.40
2022-08-27T08:37:52.955Z,14.38
2022-08-27T08:40:27.255Z,16.25
2022-08-27T08:42:57.930Z,15.85
2022-08-27T08:45:28.464Z,15.85
2022-08-27T08:48:00.321Z,13.90
2022-08-27T08:50:33.246Z,13.93
2022-08-27T08:53:04.213Z,14.23
2022-08-27T08:55:37.058Z,13.55
2022-08-27T08:58:23.236Z,14.52
2022-08-27T09:00:55.035Z,15.30
2022-08-27T09:03:23.750Z,14.73
2022-08-27T09:05:55.851Z,12.38
2022-08-27T09:08:35.244Z,15.57
2022-08-27T09:11:10.198Z,12.15
2022-08-27T09:16:21.066Z,11.10
2022-08-27T09:18:55.593Z,11.63
2022-08-27T09:21:43.161Z,10.52
2022-08-27T09:24:16.749Z,9.60
2022-08-27T09:26:46.334Z,11.32
2022-08-27T09:29:23.561Z,9.98
2022-08-27T09:31:57.478Z,11.70
2022-08-27T09:34:40.926Z,10.95
2022-08-27T09:37:10.699Z,12.80
2022-08-27T09:39:47.627Z,9.45
2022-08-27T09:42:30.019Z,11.25
2022-08-27T09:45:08.652Z,11.00
2022-08-27T09:47:47.577Z,10.68
2022-08-27T09:50:33.658Z,9.43
2022-08-27T09:53:07.769Z,9.20
2022-08-27T09:55:43.038Z,12.32
2022-08-27T10:01:48.995Z,16.13
2022-08-27T10:04:33.469Z,12.13
2022-08-27T10:07:19.156Z,11.23
2022-08-27T10:09:54.898Z,10.07
2022-08-27T10:12:26.261Z,11.50
2022-08-27T10:15:05.910Z,11.73
2022-08-27T10:17:49.160Z,12.77
2022-08-27T10:20:30.251Z,11.68
2022-08-27T10:23:08.629Z,10.32
2022-08-27T10:25:44.728Z,10.63
2022-08-27T10:32:02.395Z,11.02
2022-08-27T10:34:43.394Z,10.57
2022-08-27T10:37:52.006Z,10.63
2022-08-27T10:41:03.725Z,12.30
2022-08-27T10:43:53.901Z,9.40
2022-08-27T10:46:50.122Z,9.68
2022-08-27T10:49:55.537Z,9.40
2022-08-27T10:52:39.070Z,11.23
2022-08-27T10:55:24.613Z,8.27
2022-08-27T10:58:16.665Z,9.25
2022-08-27T11:00:55.181Z,9.55
2022-08-27T11:03:40.263Z,8.18
2022-08-27T11:23:05.610Z,11.07
2022-08-27T11:32:38.911Z,6.88
2022-08-27T11:35:46.301Z,7.40
2022-08-27T11:39:03.781Z,8.85
2022-08-27T11:42:00.397Z,9.68
2022-08-27T11:44:46.993Z,7.28
2022-08-27T11:48:09.099Z,9.02
2022-08-27T11:51:06.020Z,11.40
2022-08-27T11:53:52.458Z,8.43
2022-08-27T11:56:45.608Z,8.48
2022-08-27T11:59:24.872Z,9.70
2022-08-27T12:02:10.368Z,7.85
2022-08-27T12:04:42.222Z,8.93
2022-08-27T12:07:29.596Z,10.75
2022-08-27T12:10:23.160Z,6.78
2022-08-27T12:13:18.326Z,11.95
2022-08-27T12:16:04.485Z,8.88
2022-08-27T12:22:11.451Z,11.13
2022-08-27T12:25:23.257Z,10.57
2022-08-27T12:37:38.741Z,7.47
2022-08-27T12:40:11.012Z,11.38
2022-08-27T12:42:39.460Z,10.77
2022-08-27T12:45:08.292Z,10.23
2022-08-27T12:47:42.669Z,8.00
2022-08-27T12:50:22.882Z,9.70
2022-08-27T12:53:02.004Z,11.65
2022-08-27T12:55:37.134Z,6.95
2022-08-27T12:58:15.339Z,6.90
2022-08-27T13:01:03.948Z,8.07
2022-08-27T13:03:34.576Z,9.20
2022-08-27T13:06:02.968Z,7.75
2022-08-27T13:08:34.081Z,8.48
2022-08-27T13:11:12.847Z,8.77
2022-08-27T13:13:42.975Z,7.82
2022-08-27T13:16:11.765Z,7.90
2022-08-27T13:18:40.262Z,7.55
2022-08-27T13:21:10.648Z,9.52
2022-08-27T13:23:45.503Z,8.70
2022-08-27T13:26:13.968Z,12.02
2022-08-27T13:28:43.812Z,8.48
2022-08-27T13:31:13.196Z,10.55
2022-08-27T13:33:42.133Z,10.55
2022-08-27T13:36:11.513Z,9.13
2022-08-27T13:38:46.593Z,11.18
2022-08-27T13:41:22.566Z,8.07
2022-08-27T13:43:53.014Z,7.78
2022-08-27T13:46:26.380Z,9.35
2022-08-27T13:48:55.796Z,7.90
2022-08-27T13:51:27.181Z,7.13
2022-08-27T13:54:15.880Z,7.32
2022-08-27T13:56:57.611Z,7.32
2022-08-27T13:59:27.208Z,7.22
2022-08-27T14:01:58.525Z,8.68
2022-08-27T14:04:28.295Z,7.00
2022-08-27T14:06:56.739Z,6.97
2022-08-27T14:09:28.258Z,7.05
2022-08-27T14:12:03.217Z,6.30
2022-08-27T14:14:32.041Z,5.85
2022-08-27T14:17:01.313Z,6.85
2022-08-27T14:19:33.397Z,6.90
2022-08-27T14:22:06.210Z,7.85
2022-08-27T14:24:35.878Z,6.90
2022-08-27T14:27:08.532Z,8.95
2022-08-27T14:29:37.678Z,7.72
2022-08-27T14:32:07.693Z,6.47
2022-08-27T14:34:36.048Z,7.55
2022-08-27T14:37:05.025Z,6.28
2022-08-27T14:39:33.575Z,9.45
2022-08-27T14:42:03.326Z,5.80
2022-08-27T14:44:33.818Z,7.80
2022-08-27T14:47:03.086Z,9.73
2022-08-27T14:49:34.471Z,5.82
2022-08-27T14:52:03.563Z,5.90
2022-08-27T14:54:33.810Z,6.75
2022-08-27T14:57:03.928Z,7.57
2022-08-27T14:59:35.261Z,7.07
2022-08-27T15:02:05.112Z,5.70
2022-08-27T15:04:33.535Z,6.75
2022-08-27T15:07:02.155Z,7.93
2022-08-27T15:09:30.562Z,6.88
2022-08-27T15:11:59.242Z,7.05
2022-08-27T15:14:29.696Z,6.05
2022-08-27T15:16:58.147Z,8.63
2022-08-27T15:19:26.935Z,6.25
2022-08-27T15:21:56.535Z,6.93
2022-08-27T15:24:26.447Z,5.28
2022-08-27T15:26:57.488Z,7.82
2022-08-27T15:29:26.285Z,7.63
2022-08-27T15:31:56.086Z,6.30
2022-08-27T15:34:24.418Z,7.60
2022-08-27T15:36:52.750Z,6.18
2022-08-27T15:39:21.098Z,7.55
2022-08-27T15:42:05.752Z,8.15
2022-08-27T15:44:34.894Z,6.50
2022-08-27T15:47:04.740Z,7.10
2022-08-27T15:49:33.103Z,6.82
2022-08-27T15:52:01.829Z,7.22
2022-08-27T15:54:32.122Z,6.60
2022-08-27T15:57:00.869Z,7.68
2022-08-27T15:59:29.360Z,7.40
2022-08-27T16:01:57.836Z,6.50
2022-08-27T16:04:27.975Z,5.95
2022-08-27T16:06:56.891Z,6.18
2022-08-27T16:09:25.255Z,7.75
2022-08-27T16:11:53.616Z,7.53
2022-08-27T16:14:21.957Z,8.25
2022-08-27T16:16:50.770Z,8.27
2022-08-27T16:19:19.789Z,10.43
2022-08-27T16:21:50.219Z,7.85
2022-08-27T16:24:19.574Z,8.85
2022-08-27T16:26:48.607Z,7.45
2022-08-27T16:29:17.415Z,7.78
2022-08-27T16:31:45.884Z,8.98
2022-08-27T16:34:16.666Z,8.30
2022-08-27T16:36:45.780Z,7.35
2022-08-27T16:39:15.474Z,9.13
2022-08-27T16:41:43.813Z,8.27
2022-08-27T16:44:12.562Z,8.73
2022-08-27T16:46:41.008Z,7.68
2022-08-27T16:49:26.959Z,8.70
2022-08-27T16:51:55.422Z,8.82
2022-08-27T16:54:26.273Z,7.40
2022-08-27T16:56:54.658Z,7.53
2022-08-27T16:59:23.001Z,8.60
2022-08-27T17:01:53.232Z,9.02
2022-08-27T17:04:29.617Z,9.70
2022-08-27T17:07:00.802Z,9.75
2022-08-27T17:09:31.555Z,10.95
2022-08-27T17:12:03.903Z,8.90
2022-08-27T17:14:33.056Z,7.93
2022-08-27T17:17:01.436Z,11.02
2022-08-27T17:19:29.775Z,10.80
2022-08-27T17:21:58.193Z,9.57
2022-08-27T17:24:26.577Z,10.57
2022-08-27T17:26:56.366Z,8.95
2022-08-27T17:29:25.066Z,9.77
2022-08-27T17:31:53.751Z,7.93
2022-08-27T17:34:23.396Z,10.63
2022-08-27T17:36:51.930Z,8.60
2022-08-27T17:39:20.930Z,10.98
2022-08-27T17:41:50.973Z,10.15
2022-08-27T17:44:23.923Z,10.15
2022-08-27T17:46:52.651Z,10.25
2022-08-27T17:49:21.243Z,10.50
2022-08-27T17:51:50.979Z,9.35
2022-08-27T17:54:27.508Z,11.32
2022-08-27T17:56:55.965Z,11.00
2022-08-27T17:59:25.809Z,12.50
2022-08-27T18:01:54.617Z,18.08
2022-08-27T18:04:23.134Z,13.63
2022-08-27T18:06:51.839Z,13.50
2022-08-27T18:09:20.467Z,18.52
2022-08-27T18:11:48.961Z,15.48
2022-08-27T18:14:18.565Z,12.60
2022-08-27T18:16:48.496Z,25.50
2022-08-27T18:19:16.891Z,20.15
2022-08-27T18:21:46.975Z,16.17
2022-08-27T18:24:15.917Z,14.18
2022-08-27T18:26:45.287Z,11.65
2022-08-27T18:29:14.717Z,10.35
2022-08-27T18:31:44.244Z,10.07
2022-08-27T18:34:20.100Z,11.80
2022-08-27T18:36:49.205Z,9.98
2022-08-27T18:39:17.562Z,13.13
2022-08-27T18:41:45.995Z,9.57
2022-08-27T18:44:17.465Z,9.10
2022-08-27T18:46:47.631Z,8.40
2022-08-27T18:49:17.425Z,9.50
2022-08-27T18:51:49.400Z,9.15
2022-08-27T18:54:21.417Z,9.48
2022-08-27T18:56:52.857Z,10.02
2022-08-27T18:59:25.552Z,10.57
2022-08-27T19:01:54.065Z,12.20
2022-08-27T19:04:24.576Z,12.15
2022-08-27T19:06:52.960Z,10.50
2022-08-27T19:09:24.312Z,12.50
2022-08-27T19:11:54.798Z,13.57
2022-08-27T19:14:25.598Z,10.77
2022-08-27T19:16:56.136Z,10.23
2022-08-27T19:19:27.326Z,8.77
2022-08-27T19:21:55.691Z,8.98
2022-08-27T19:24:27.607Z,9.43
2022-08-27T19:26:56.284Z,10.27
2022-08-27T19:29:24.650Z,10.15
2022-08-27T19:31:56.060Z,10.95
2022-08-27T19:34:25.855Z,10.90
2022-08-27T19:36:54.204Z,8.90
2022-08-27T19:39:22.567Z,8.85
2022-08-27T19:41:52.965Z,9.50
2022-08-27T19:44:21.422Z,8.45
2022-08-27T19:46:51.576Z,9.73
2022-08-27T19:49:21.934Z,9.40
2022-08-27T19:51:53.498Z,10.18
2022-08-27T19:54:22.210Z,8.77
2022-08-27T19:56:50.559Z,10.52
2022-08-27T19:59:23.487Z,8.93
2022-08-27T20:01:53.878Z,7.40
2022-08-27T20:04:27.035Z,9.07
2022-08-27T20:06:58.938Z,10.20
2022-08-27T20:09:29.814Z,9.63
2022-08-27T20:11:59.462Z,9.90
2022-08-27T20:14:28.132Z,9.43
2022-08-27T20:16:59.083Z,10.18
2022-08-27T20:19:27.511Z,7.75
2022-08-27T20:21:55.848Z,9.32
2022-08-27T20:24:25.593Z,11.85
2022-08-27T20:26:53.922Z,9.85
2022-08-27T20:29:32.321Z,10.30
2022-08-27T20:32:01.539Z,11.30
2022-08-27T20:34:29.995Z,8.55
2022-08-27T20:36:58.868Z,10.07
2022-08-27T20:39:28.580Z,9.00
2022-08-27T20:41:56.925Z,8.45
2022-08-27T20:44:25.318Z,8.27
2022-08-27T20:46:56.542Z,10.68
2022-08-27T20:49:24.891Z,9.90
2022-08-27T20:52:03.034Z,8.63
2022-08-27T20:54:34.659Z,10.13
2022-08-27T20:57:03.343Z,9.90
2022-08-27T20:59:49.710Z,9.27
2022-08-27T21:02:22.063Z,9.75
2022-08-27T21:04:50.515Z,9.63
2022-08-27T21:07:19.837Z,10.88
2022-08-27T21:09:55.594Z,10.93
2022-08-27T21:12:25.147Z,8.40
2022-08-27T21:14:56.188Z,8.98
2022-08-27T21:17:25.352Z,10.05
2022-08-27T21:19:53.773Z,8.65
2022-08-27T21:22:22.183Z,7.75
2022-08-27T21:24:52.137Z,9.75
2022-08-27T21:27:21.667Z,8.82
2022-08-27T21:29:50.012Z,11.02
2022-08-27T21:32:18.819Z,7.95
2022-08-27T21:34:47.329Z,9.23
2022-08-27T21:37:17.929Z,11.60
2022-08-27T21:39:46.621Z,8.48
2022-08-27T21:42:16.753Z,10.02
2022-08-27T21:44:45.309Z,8.95
2022-08-27T21:47:13.659Z,8.23
2022-08-27T21:49:42.557Z,9.93
2022-08-27T21:52:11.052Z,9.77
2022-08-27T21:54:41.189Z,10.07
2022-08-27T21:57:10.358Z,9.25
2022-08-27T21:59:45.978Z,8.98
2022-08-27T22:02:38.098Z,9.63
2022-08-27T22:05:03.379Z,11.85
2022-08-27T22:07:31.695Z,10.00
2022-08-27T22:10:00.080Z,8.00
2022-08-27T22:12:28.458Z,9.77
2022-08-27T22:14:58.170Z,11.65
2022-08-27T22:17:26.530Z,10.65
2022-08-27T22:19:54.902Z,9.45
2022-08-27T22:22:23.281Z,8.68
2022-08-27T22:24:52.914Z,8.40
2022-08-27T22:27:21.337Z,9.77
2022-08-27T22:29:49.709Z,9.45
2022-08-27T22:32:19.446Z,8.10
2022-08-27T22:34:47.869Z,9.45
2022-08-27T22:37:16.266Z,9.50
2022-08-27T22:39:44.604Z,8.73
2022-08-27T22:42:13.917Z,8.70
2022-08-27T22:44:46.501Z,8.18
2022-08-27T22:47:16.461Z,8.63
2022-08-27T22:49:46.225Z,7.72
2022-08-27T22:52:14.618Z,7.45
2022-08-27T22:54:42.950Z,9.00
2022-08-27T22:57:13.483Z,9.57
2022-08-27T22:59:41.807Z,9.85
2022-08-27T23:02:11.038Z,10.60
2022-08-27T23:04:54.761Z,7.82
2022-08-27T23:07:25.549Z,8.68
2022-08-27T23:09:53.875Z,9.98
2022-08-27T23:12:22.858Z,8.98
2022-08-27T23:14:53.599Z,10.93
2022-08-27T23:17:23.950Z,7.43
2022-08-27T23:19:53.439Z,8.93
2022-08-27T23:22:22.380Z,9.30
2022-08-27T23:25:09.942Z,7.20
2022-08-27T23:27:38.262Z,8.63
2022-08-27T23:30:08.054Z,8.43
2022-08-27T23:32:36.457Z,8.07
2022-08-27T23:35:05.000Z,11.23
2022-08-27T23:37:33.343Z,7.45
2022-08-27T23:40:03.184Z,9.25
2022-08-27T23:42:31.526Z,8.50
2022-08-27T23:44:59.832Z,8.50
2022-08-27T23:47:28.224Z,9.32
2022-08-27T23:49:56.517Z,8.52
2022-08-27T23:52:24.946Z,7.55
2022-08-27T23:54:53.250Z,8.90
2022-08-27T23:57:22.926Z,6.50
2022-08-27T23:59:51.239Z,8.80
